Terminal Aerodrome Forecast
Issued by NWS

Home | Current Version | Previous Version | Text Only | Print | Product List | Glossary On
Versions: 1 2 3 4 5 6 7 8 9 10 11 12 13 14 15 16 17 18 19
713
FTUS42 KMLB 210520
TAFLEE
TAF
KLEE 210520Z 2106/2206 08004KT P6SM SCT050 SCT250
     FM211200 09005KT P6SM BKN050
     FM211500 09006KT P6SM VCSH BKN050 OVC080
     FM211700 11008KT 5SM -RA BKN035 OVC050
      TEMPO 2118/2122 3SM RA BR BKN020 OVC040
     FM220000 09004KT P6SM VCSH SCT040 BKN070=

USA.gov is the U.S. government's official web portal to all federal, state and local government web resources and services.